Impacts TAF Board
For situational awareness. Not to be used for flight planning purposes.
IDs:

KSTL - St Louis/Lambert Int, MO, US

Issued at 0208 UTC 20 Mar 2019
Updated at 0354 UTC 20 Mar 2019
Potential Impact None Slight Moderate High
Time0351Z 20/04Z 20/05Z 20/06Z 20/07Z 20/08Z 20/09Z 20/10Z 20/11Z 20/12Z 20/13Z 20/14Z 20/15Z 20/16Z>>
Type OBS PRVL PRVL PRVL PRVL PRVL PRVL PRVL
  [TEMP]  
PRVL
  [TEMP]  
PRVL
  [TEMP]  
PRVL PRVL PRVL PRVL
VIS 10 >6 >6 >6 >6 >6 >6 >6
  [5]  
>6
  [5]  
>6
  [5]  
>6 >6 >6 >6
CIG 170 60 60 60 60 60 60 60
  [20]  
60
  [20]  
60
  [20]  
28 28 28 28
Cover OVC OVC OVC OVC OVC OVC OVC OVC
  [OVC]  
OVC
  [OVC]  
OVC
  [OVC]  
OVC OVC OVC OVC
FltCat VFR VFR VFR VFR VFR VFR VFR VFR
  [MVFR]  
VFR
  [MVFR]  
VFR
  [MVFR]  
MVFR MVFR MVFR MVFR
WX -- -- -- -- -- -- -- -SHRA
  [SHRA]  
-SHRA
  [SHRA]  
-SHRA
  [SHRA]  
VCSH VCSH VCSH VCSH
WDir 160 150 150 150 150 150 150 190
[190]
190
[190]
190
[190]
240 240 240 240
WSpd 12 5 5 5 5 5 5 11
  [11]  
11
  [11]  
11
  [11]  
12 12 12 12
WGst -- -- -- -- -- -- -- --
  [--]  
--
  [--]  
--
  [--]  
22 22 22 22
Raw TAF
KSTL 200208Z 2002/2106 15005KT P6SM OVC060
  FM201000 19011KT P6SM -SHRA OVC060
  TEMPO 2010/2013 5SM SHRA OVC020
  FM201300 24012G22KT P6SM VCSH OVC028
  FM202000 27011KT P6SM OVC035


Raw METAR
KSTL 200351Z 16012KT 10SM OVC170 11/M02 A3022 RMK AO2 SLP236 T01111017
KSTL 200251Z 15013KT 10SM OVC160 12/M02 A3024 RMK AO2 SLP241 60000 T01171017 56011
KSTL 200151Z 13009KT 10SM OVC150 11/M01 A3025 RMK AO2 SLP246 T01061011
KSTL 200051Z 13010KT 10SM FEW055 FEW090 OVC110 12/M02 A3025 RMK AO2 RAB09E24 SLP250 P0000 T01171017

METAR Board
Radar Display
Forecast Discussion
For situational awareness. Not to be used for flight planning purposes.